createdAt,value
2018-07-26T00:00:32.879Z,99987.34
2018-07-26T00:03:03.365Z,99983.80
2018-07-26T00:05:30.491Z,99988.44
2018-07-26T00:07:57.495Z,99984.95
2018-07-26T00:10:25.392Z,99980.70
2018-07-26T00:12:52.413Z,99986.30
2018-07-26T00:15:19.424Z,99984.88
2018-07-26T00:17:46.475Z,99989.37
2018-07-26T00:20:13.487Z,99982.09
2018-07-26T00:22:41.635Z,99990.09
2018-07-26T00:25:14.850Z,99981.96
2018-07-26T00:27:45.823Z,99986.11
2018-07-26T00:30:12.866Z,99984.41
2018-07-26T00:32:42.010Z,99983.83
2018-07-26T00:35:12.135Z,99979.58
2018-07-26T00:37:43.879Z,99976.97
2018-07-26T00:40:11.883Z,99974.45
2018-07-26T00:42:39.019Z,99978.48
2018-07-26T00:45:09.316Z,99977.48
2018-07-26T00:47:36.452Z,99971.66
2018-07-26T00:50:03.604Z,99984.53
2018-07-26T00:52:31.313Z,99995.41
2018-07-26T00:55:03.371Z,100002.52
2018-07-26T00:57:32.319Z,100003.66
2018-07-26T01:00:04.547Z,100008.05
2018-07-26T01:02:31.577Z,100010.67
2018-07-26T01:04:59.698Z,100008.62
2018-07-26T01:07:27.767Z,100006.02
2018-07-26T01:09:55.871Z,100004.58
2018-07-26T01:12:23.044Z,100004.51
2018-07-26T01:14:51.852Z,100015.44
2018-07-26T01:17:18.973Z,100013.53
2018-07-26T01:19:46.102Z,100011.22
2018-07-26T01:22:14.172Z,100006.09
2018-07-26T01:24:41.220Z,100004.52
2018-07-26T01:27:08.287Z,100000.51
2018-07-26T01:29:36.313Z,100006.31
2018-07-26T01:32:06.943Z,100008.91
2018-07-26T01:34:37.042Z,100003.30
2018-07-26T01:37:05.846Z,100004.33
2018-07-26T01:39:34.056Z,100006.09
2018-07-26T01:42:02.887Z,100000.25
2018-07-26T01:44:29.938Z,100002.59
2018-07-26T01:46:57.031Z,99995.16
2018-07-26T01:49:25.221Z,100006.16
2018-07-26T01:51:56.375Z,99999.69
2018-07-26T01:54:23.488Z,100006.80
2018-07-26T01:56:51.388Z,100002.04
2018-07-26T01:59:18.578Z,99998.71
2018-07-26T02:01:45.762Z,100002.34
2018-07-26T02:04:14.411Z,100005.66
2018-07-26T02:06:41.478Z,100004.88
2018-07-26T02:09:18.439Z,100002.62
2018-07-26T02:11:53.053Z,100003.70
2018-07-26T02:14:26.711Z,100000.28
2018-07-26T02:17:09.659Z,99995.39
2018-07-26T02:19:36.687Z,99990.88
2018-07-26T02:22:03.795Z,99989.98
2018-07-26T02:24:30.862Z,99990.50
2018-07-26T02:27:01.616Z,99997.83
2018-07-26T02:29:31.723Z,100002.13
2018-07-26T02:32:01.801Z,99998.52
2018-07-26T02:34:28.857Z,100008.95
2018-07-26T02:36:55.949Z,100006.57
2018-07-26T02:39:22.969Z,100005.84
2018-07-26T02:41:50.923Z,99999.83
2018-07-26T02:44:17.983Z,99996.87
2018-07-26T02:46:49.099Z,99998.23
2018-07-26T02:49:16.911Z,99999.38
2018-07-26T02:51:44.964Z,100002.11
2018-07-26T02:54:14.174Z,100005.16
2018-07-26T02:56:44.907Z,100005.56
2018-07-26T02:59:12.124Z,100002.75
2018-07-26T03:01:43.869Z,100007.96
2018-07-26T03:04:10.938Z,100000.78
2018-07-26T03:06:38.018Z,100000.70
2018-07-26T03:09:12.390Z,100010.67
2018-07-26T03:11:42.504Z,100003.63
2018-07-26T03:14:22.851Z,100003.37
2018-07-26T03:16:49.945Z,100012.83
2018-07-26T03:19:17.031Z,100010.77
2018-07-26T03:21:44.111Z,100005.91
2018-07-26T03:24:14.824Z,100016.33
2018-07-26T03:26:41.835Z,100015.16
2018-07-26T03:29:08.900Z,100014.89
2018-07-26T03:31:36.178Z,100012.52
2018-07-26T03:34:03.296Z,100014.08
2018-07-26T03:36:30.460Z,100014.22
2018-07-26T03:38:58.446Z,100003.81
2018-07-26T03:41:29.108Z,100016.94
2018-07-26T03:43:56.932Z,100017.75
2018-07-26T03:46:25.203Z,100021.79
2018-07-26T03:48:52.891Z,100022.00
2018-07-26T03:51:22.016Z,100025.64
2018-07-26T03:53:49.080Z,100019.36
2018-07-26T03:56:17.990Z,100026.16
2018-07-26T03:58:45.068Z,100029.47
2018-07-26T04:01:12.122Z,100037.27
2018-07-26T04:03:39.273Z,100038.59
2018-07-26T04:06:06.421Z,100042.77
2018-07-26T04:08:35.557Z,100036.97
2018-07-26T04:11:03.516Z,100039.38
2018-07-26T04:13:35.047Z,100044.75
2018-07-26T04:16:02.086Z,100036.03
2018-07-26T04:18:29.108Z,100036.41
2018-07-26T04:20:57.274Z,100033.23
2018-07-26T04:26:08.929Z,100042.34
2018-07-26T04:28:36.580Z,100036.27
2018-07-26T04:31:03.892Z,100040.73
2018-07-26T04:33:34.517Z,100042.73
2018-07-26T04:36:05.699Z,100035.41
2018-07-26T04:38:33.784Z,100041.77
2018-07-26T04:41:03.931Z,100040.35
2018-07-26T04:43:30.981Z,100049.39
2018-07-26T04:45:59.053Z,100041.14
2018-07-26T04:48:27.015Z,100042.28
2018-07-26T04:50:54.126Z,100052.05
2018-07-26T04:53:23.006Z,100054.27
2018-07-26T04:55:58.073Z,100048.30
2018-07-26T04:58:25.465Z,100056.38
2018-07-26T05:00:54.134Z,100065.47
2018-07-26T05:03:21.185Z,100067.00
2018-07-26T05:05:48.328Z,100063.48
2018-07-26T05:08:19.278Z,100063.26
2018-07-26T05:10:51.294Z,100060.08
2018-07-26T05:13:18.409Z,100069.77
2018-07-26T05:15:54.733Z,100072.41
2018-07-26T05:18:23.495Z,100075.64
2018-07-26T05:20:52.596Z,100071.61
2018-07-26T05:23:23.143Z,100073.86
2018-07-26T05:25:50.470Z,100071.86
2018-07-26T05:28:21.061Z,100079.09
2018-07-26T05:30:48.148Z,100077.59
2018-07-26T05:33:15.318Z,100085.17
2018-07-26T05:35:48.590Z,100084.44
2018-07-26T05:38:19.101Z,100084.79
2018-07-26T05:40:46.296Z,100081.80
2018-07-26T05:43:21.090Z,100085.73
2018-07-26T05:45:51.137Z,100087.45
2018-07-26T05:48:18.180Z,100085.35
2018-07-26T05:50:47.157Z,100089.97
2018-07-26T05:53:17.200Z,100091.75
2018-07-26T05:55:45.044Z,100090.27
2018-07-26T05:58:14.048Z,100090.47
2018-07-26T06:00:47.439Z,100095.52
2018-07-26T06:03:22.028Z,100093.08
2018-07-26T06:05:53.443Z,100087.53
2018-07-26T06:08:23.549Z,100092.58
2018-07-26T06:10:54.215Z,100093.11
2018-07-26T06:13:22.105Z,100094.97
2018-07-26T06:15:51.030Z,100095.52
2018-07-26T06:18:23.393Z,100103.47
2018-07-26T06:20:50.494Z,100100.23
2018-07-26T06:23:17.573Z,100100.90
2018-07-26T06:25:47.607Z,100098.39
2018-07-26T06:28:15.687Z,100101.36
2018-07-26T06:30:47.545Z,100101.36
2018-07-26T06:33:16.499Z,100097.83
2018-07-26T06:35:44.494Z,100091.99
2018-07-26T06:38:11.721Z,100109.88
2018-07-26T06:40:41.844Z,100100.76
2018-07-26T06:43:09.037Z,100100.41
2018-07-26T06:45:37.261Z,100109.95
2018-07-26T06:48:05.113Z,100095.41
2018-07-26T06:50:32.193Z,100110.52
2018-07-26T06:52:59.413Z,100107.77
2018-07-26T06:55:26.469Z,100094.66
2018-07-26T06:57:54.269Z,100106.97
2018-07-26T07:00:21.400Z,100100.66
2018-07-26T07:02:48.636Z,100104.49
2018-07-26T07:05:15.729Z,100107.12
2018-07-26T07:07:42.827Z,100106.33
2018-07-26T07:10:10.618Z,100105.14
2018-07-26T07:12:43.925Z,100110.22
2018-07-26T07:15:11.526Z,100102.80
2018-07-26T07:17:40.594Z,100098.31
2018-07-26T07:20:08.313Z,100102.85
2018-07-26T07:22:41.440Z,100112.63
2018-07-26T07:25:09.137Z,100103.59
2018-07-26T07:27:36.205Z,100101.32
2018-07-26T07:30:08.492Z,100111.01
2018-07-26T07:32:35.538Z,100100.61
2018-07-26T07:35:03.714Z,100101.14
2018-07-26T07:37:30.953Z,100096.05
2018-07-26T07:39:58.722Z,100101.41
2018-07-26T07:42:26.633Z,100101.97
2018-07-26T07:44:56.775Z,100099.54
2018-07-26T07:47:25.600Z,100098.19
2018-07-26T07:49:52.705Z,100095.27
2018-07-26T07:52:20.854Z,100092.31
2018-07-26T07:54:48.647Z,100094.72
2018-07-26T07:57:16.636Z,100094.97
2018-07-26T07:59:43.793Z,100093.66
2018-07-26T08:02:11.663Z,100094.98
2018-07-26T08:04:38.903Z,100103.80
2018-07-26T08:07:06.012Z,100095.95
2018-07-26T08:09:33.987Z,100094.30
2018-07-26T08:12:01.683Z,100096.91
2018-07-26T08:14:32.456Z,100094.28
2018-07-26T08:16:59.493Z,100094.77
2018-07-26T08:19:29.605Z,100091.46
2018-07-26T08:21:56.685Z,100086.47
2018-07-26T08:24:24.654Z,100086.11
2018-07-26T08:26:52.276Z,100079.86
2018-07-26T08:29:26.677Z,100085.47
2018-07-26T08:31:54.751Z,100087.33
2018-07-26T08:34:22.541Z,100081.64
2018-07-26T08:36:49.652Z,100077.64
2018-07-26T08:39:25.495Z,100082.13
2018-07-26T08:41:53.721Z,100090.20
2018-07-26T08:44:20.901Z,100092.30
2018-07-26T08:46:48.036Z,100091.19
2018-07-26T08:49:15.189Z,100093.42
2018-07-26T08:51:43.100Z,100089.02
2018-07-26T08:54:11.291Z,100082.73
2018-07-26T08:56:38.404Z,100093.53
2018-07-26T08:59:08.490Z,100091.44
2018-07-26T09:01:35.616Z,100088.55
2018-07-26T09:04:02.767Z,100092.83
2018-07-26T09:06:30.655Z,100090.89
2018-07-26T09:08:58.700Z,100095.08
2018-07-26T09:11:25.761Z,100087.47
2018-07-26T09:13:52.836Z,100087.58
2018-07-26T09:16:19.889Z,100082.27
2018-07-26T09:18:50.540Z,100079.12
2018-07-26T09:21:17.721Z,100084.19
2018-07-26T09:23:45.661Z,100080.61
2018-07-26T09:26:12.804Z,100089.68
2018-07-26T09:28:39.839Z,100090.06
2018-07-26T09:31:06.933Z,100085.11
2018-07-26T09:33:37.920Z,100085.20
2018-07-26T09:36:11.628Z,100082.53
2018-07-26T09:38:38.775Z,100082.91
2018-07-26T09:41:12.534Z,100079.41
2018-07-26T09:43:40.271Z,100086.44
2018-07-26T09:46:10.517Z,100082.55
2018-07-26T09:48:40.701Z,100073.52
2018-07-26T09:51:07.788Z,100071.02
2018-07-26T09:53:34.892Z,100064.63
2018-07-26T09:56:02.032Z,100072.98
2018-07-26T09:58:29.176Z,100068.33
2018-07-26T10:01:03.946Z,100061.56
2018-07-26T10:03:31.045Z,100062.13
2018-07-26T10:05:58.820Z,100058.15
2018-07-26T10:08:25.967Z,100056.12
2018-07-26T10:10:53.157Z,100052.55
2018-07-26T10:13:20.463Z,100058.28
2018-07-26T10:15:47.639Z,100055.61
2018-07-26T10:18:14.819Z,100059.83
2018-07-26T10:20:49.673Z,100043.87
2018-07-26T10:23:17.781Z,100053.86
2018-07-26T10:25:44.892Z,100047.38
2018-07-26T10:28:12.106Z,100046.48
2018-07-26T10:30:44.576Z,100045.42
2018-07-26T10:33:14.746Z,100054.50
2018-07-26T10:35:41.801Z,100045.84
2018-07-26T10:38:08.917Z,100043.63
2018-07-26T10:40:36.067Z,100047.73
2018-07-26T10:43:03.126Z,100040.02
2018-07-26T10:45:30.236Z,100034.70
2018-07-26T10:47:57.372Z,100039.20
2018-07-26T10:50:24.456Z,100039.38
2018-07-26T10:52:51.626Z,100033.09
2018-07-26T10:55:18.859Z,100035.84
2018-07-26T10:57:45.957Z,100028.25
2018-07-26T11:00:13.125Z,100030.34
2018-07-26T11:02:40.346Z,100030.11
2018-07-26T11:05:08.752Z,100025.42
2018-07-26T11:07:36.139Z,100028.11
2018-07-26T11:10:04.731Z,100026.58
2018-07-26T11:12:32.948Z,100022.65
2018-07-26T11:15:07.077Z,100012.14
2018-07-26T11:17:34.759Z,100013.28
2018-07-26T11:20:01.987Z,100009.44
2018-07-26T11:22:32.098Z,100018.62
2018-07-26T11:25:00.296Z,100014.94
2018-07-26T11:27:27.566Z,100008.22
2018-07-26T11:29:55.310Z,100006.98
2018-07-26T11:32:22.553Z,100005.17
2018-07-26T11:34:50.856Z,100004.17
2018-07-26T11:37:19.874Z,100015.91
2018-07-26T11:39:47.008Z,100008.25
2018-07-26T11:42:15.295Z,100006.95
2018-07-26T11:44:43.195Z,100001.52
2018-07-26T11:47:11.415Z,100002.84
2018-07-26T11:49:40.506Z,100000.70
2018-07-26T11:52:07.638Z,99994.06
2018-07-26T11:54:36.336Z,99988.48
2018-07-26T11:57:04.424Z,99971.75
2018-07-26T11:59:35.323Z,99986.03
2018-07-26T12:02:02.484Z,99986.87
2018-07-26T12:06:44.833Z,99976.58
2018-07-26T12:09:12.843Z,99972.39
2018-07-26T12:11:40.354Z,99963.34
2018-07-26T12:14:16.354Z,99964.73
2018-07-26T12:16:44.271Z,99969.77
2018-07-26T12:19:11.359Z,99964.77
2018-07-26T12:21:42.848Z,99962.81
2018-07-26T12:24:15.371Z,99962.87
2018-07-26T12:26:43.428Z,99948.66
2018-07-26T12:29:11.456Z,99953.58
2018-07-26T12:31:38.760Z,99957.97
2018-07-26T12:34:07.941Z,99949.05
2018-07-26T12:36:41.244Z,99950.56
2018-07-26T12:39:09.633Z,99943.42
2018-07-26T12:41:37.089Z,99936.80
2018-07-26T12:44:04.228Z,99944.84
2018-07-26T12:46:31.428Z,99943.73
2018-07-26T12:48:58.591Z,99940.47
2018-07-26T12:51:25.906Z,99935.42
2018-07-26T12:53:53.966Z,99932.97
2018-07-26T12:56:21.209Z,99926.03
2018-07-26T12:58:50.206Z,99923.47
2018-07-26T13:01:17.883Z,99925.30
2018-07-26T13:03:45.088Z,99927.34
2018-07-26T13:06:12.323Z,99927.28
2018-07-26T13:08:39.420Z,99914.66
2018-07-26T13:11:06.520Z,99916.23
2018-07-26T13:13:35.367Z,99920.60
2018-07-26T13:16:03.382Z,99911.14
2018-07-26T13:18:31.365Z,99898.34
2018-07-26T13:20:58.601Z,99909.41
2018-07-26T13:23:27.444Z,99896.13
2018-07-26T13:25:55.316Z,99902.56
2018-07-26T13:28:22.417Z,99899.52
2018-07-26T13:30:49.586Z,99909.72
2018-07-26T13:33:16.751Z,99891.83
2018-07-26T13:35:44.892Z,99893.26
2018-07-26T13:38:13.075Z,99889.02
2018-07-26T13:40:41.848Z,99892.23
2018-07-26T13:43:09.176Z,99897.82
2018-07-26T13:45:36.306Z,99881.28
2018-07-26T13:48:03.376Z,99875.95
2018-07-26T13:50:30.503Z,99879.04
2018-07-26T13:52:57.673Z,99878.95
2018-07-26T13:55:24.965Z,99870.42
2018-07-26T13:57:52.119Z,99874.41
2018-07-26T14:00:21.041Z,99871.07
2018-07-26T14:02:48.990Z,99870.81
2018-07-26T14:05:18.008Z,99871.89
2018-07-26T14:07:47.180Z,99871.38
2018-07-26T14:10:20.314Z,99862.52
2018-07-26T14:12:47.424Z,99860.42
2018-07-26T14:15:14.622Z,99859.30
2018-07-26T14:17:41.847Z,99851.77
2018-07-26T14:20:10.267Z,99852.45
2018-07-26T14:22:37.552Z,99860.13
2018-07-26T14:25:05.143Z,99857.13
2018-07-26T14:27:32.227Z,99849.88
2018-07-26T14:30:00.386Z,99852.36
2018-07-26T14:32:27.504Z,99847.94
2018-07-26T14:34:54.660Z,99836.03
2018-07-26T14:37:23.527Z,99843.30
2018-07-26T14:39:50.763Z,99839.95
2018-07-26T14:42:18.450Z,99841.99
2018-07-26T14:44:46.875Z,99836.22
2018-07-26T14:47:15.077Z,99827.47
2018-07-26T14:49:42.281Z,99825.76
2018-07-26T14:52:10.269Z,99832.11
2018-07-26T14:54:43.609Z,99825.10
2018-07-26T14:57:12.594Z,99825.33
2018-07-26T14:59:45.527Z,99820.27
2018-07-26T15:02:15.828Z,99825.54
2018-07-26T15:04:43.082Z,99821.16
2018-07-26T15:07:10.992Z,99823.80
2018-07-26T15:09:38.183Z,99823.11
2018-07-26T15:12:05.620Z,99819.86
2018-07-26T15:14:32.719Z,99803.85
2018-07-26T15:17:01.412Z,99818.00
2018-07-26T15:19:28.528Z,99809.70
2018-07-26T15:21:56.750Z,99802.72
2018-07-26T15:24:25.732Z,99806.56
2018-07-26T15:26:52.800Z,99812.36
2018-07-26T15:29:20.475Z,99803.44
2018-07-26T15:31:48.592Z,99804.98
2018-07-26T15:34:20.480Z,99807.52
2018-07-26T15:36:50.546Z,99806.86
2018-07-26T15:39:17.637Z,99811.86
2018-07-26T15:41:45.053Z,99813.34
2018-07-26T15:44:13.334Z,99808.84
2018-07-26T15:46:40.482Z,99817.20
2018-07-26T15:49:07.763Z,99810.23
2018-07-26T15:51:50.158Z,99814.29
2018-07-26T15:54:20.310Z,99800.17
2018-07-26T15:56:47.565Z,99806.25
2018-07-26T15:59:14.620Z,99796.70
2018-07-26T16:01:41.713Z,99797.88
2018-07-26T16:04:08.933Z,99797.27
2018-07-26T16:06:42.329Z,99793.48
2018-07-26T16:09:10.325Z,99791.02
2018-07-26T16:11:38.740Z,99789.55
2018-07-26T16:14:07.104Z,99790.89
2018-07-26T16:16:34.298Z,99786.97
2018-07-26T16:19:01.756Z,99792.16
2018-07-26T16:21:28.885Z,99790.78
2018-07-26T16:23:57.081Z,99791.95
2018-07-26T16:26:27.293Z,99789.52
2018-07-26T16:28:56.435Z,99785.68
2018-07-26T16:31:24.620Z,99784.89
2018-07-26T16:33:51.714Z,99786.30
2018-07-26T16:36:18.963Z,99787.70
2018-07-26T16:38:49.118Z,99778.19
2018-07-26T16:41:16.918Z,99780.73
2018-07-26T16:43:46.851Z,99781.93
2018-07-26T16:46:24.539Z,99784.67
2018-07-26T16:48:52.668Z,99775.69
2018-07-26T16:51:20.629Z,99769.28
2018-07-26T16:53:49.554Z,99779.75
2018-07-26T16:56:17.876Z,99779.00
2018-07-26T16:58:44.870Z,99779.22
2018-07-26T17:01:12.923Z,99781.87
2018-07-26T17:03:43.542Z,99777.85
2018-07-26T17:06:12.896Z,99776.34
2018-07-26T17:08:43.703Z,99771.22
2018-07-26T17:11:10.859Z,99782.28
2018-07-26T17:13:38.892Z,99775.61
2018-07-26T17:16:06.794Z,99780.06
2018-07-26T17:18:35.318Z,99784.28
2018-07-26T17:21:03.245Z,99779.53
2018-07-26T17:23:31.266Z,99778.75
2018-07-26T17:25:58.879Z,99786.86
2018-07-26T17:28:26.539Z,99786.02
2018-07-26T17:30:55.616Z,99780.30
2018-07-26T17:33:23.401Z,99780.95
2018-07-26T17:35:50.515Z,99779.78
2018-07-26T17:38:18.445Z,99780.58
2018-07-26T17:40:45.844Z,99786.20
2018-07-26T17:43:12.968Z,99782.65
2018-07-26T17:45:40.189Z,99785.71
2018-07-26T17:48:07.295Z,99783.64
2018-07-26T17:50:37.588Z,99779.48
2018-07-26T17:53:07.834Z,99787.41
2018-07-26T17:55:34.919Z,99790.33
2018-07-26T17:58:05.337Z,99787.37
2018-07-26T18:00:32.608Z,99790.21
2018-07-26T18:03:01.428Z,99788.20
2018-07-26T18:05:29.091Z,99786.67
2018-07-26T18:07:59.763Z,99795.23
2018-07-26T18:10:26.937Z,99800.53
2018-07-26T18:13:01.524Z,99791.19
2018-07-26T18:15:29.711Z,99787.65
2018-07-26T18:17:57.459Z,99802.09
2018-07-26T18:20:24.552Z,99797.64
2018-07-26T18:22:52.028Z,99796.59
2018-07-26T18:25:20.226Z,99802.02
2018-07-26T18:27:48.060Z,99806.10
2018-07-26T18:30:15.390Z,99805.18
2018-07-26T18:32:42.509Z,99799.08
2018-07-26T18:35:12.389Z,99798.72
2018-07-26T18:37:39.461Z,99809.69
2018-07-26T18:40:06.875Z,99808.93
2018-07-26T18:42:38.087Z,99815.05
2018-07-26T18:45:07.205Z,99819.41
2018-07-26T18:47:35.612Z,99816.05
2018-07-26T18:50:02.934Z,99820.83
2018-07-26T18:52:30.066Z,99824.97
2018-07-26T18:54:58.232Z,99821.27
2018-07-26T18:57:25.505Z,99828.19
2018-07-26T18:59:52.711Z,99830.99
2018-07-26T19:02:19.830Z,99825.50
2018-07-26T19:04:46.928Z,99832.20
2018-07-26T19:07:14.125Z,99836.48
2018-07-26T19:09:41.281Z,99835.56
2018-07-26T19:12:09.494Z,99842.33
2018-07-26T19:14:37.705Z,99836.97
2018-07-26T19:17:08.646Z,99839.75
2018-07-26T19:19:41.883Z,99856.39
2018-07-26T19:22:09.132Z,99851.22
2018-07-26T19:24:37.414Z,99850.16
2018-07-26T19:27:04.634Z,99854.30
2018-07-26T19:29:31.896Z,99861.34
2018-07-26T19:31:59.201Z,99858.95
2018-07-26T19:34:29.370Z,99859.53
2018-07-26T19:36:56.631Z,99862.19
2018-07-26T19:39:23.883Z,99863.78
2018-07-26T19:41:51.196Z,99869.63
2018-07-26T19:44:18.685Z,99873.39
2018-07-26T19:46:45.950Z,99866.44
2018-07-26T19:49:13.116Z,99872.00
2018-07-26T19:51:40.297Z,99875.54
2018-07-26T19:54:07.548Z,99871.47
2018-07-26T19:56:34.768Z,99866.39
2018-07-26T19:59:02.208Z,99877.12
2018-07-26T20:01:29.267Z,99873.34
2018-07-26T20:03:56.579Z,99876.52
2018-07-26T20:06:23.591Z,99878.85
2018-07-26T20:08:50.725Z,99877.48
2018-07-26T20:11:18.798Z,99884.41
2018-07-26T20:13:46.591Z,99889.90
2018-07-26T20:16:14.152Z,99887.05
2018-07-26T20:18:43.072Z,99884.81
2018-07-26T20:21:11.180Z,99883.38
2018-07-26T20:23:38.404Z,99887.95
2018-07-26T20:26:06.526Z,99883.31
2018-07-26T20:28:37.364Z,99887.38
2018-07-26T20:31:04.681Z,99895.23
2018-07-26T20:33:31.734Z,99897.49
2018-07-26T20:35:59.851Z,99900.13
2018-07-26T20:38:27.275Z,99897.53
2018-07-26T20:40:54.554Z,99911.55
2018-07-26T20:43:21.867Z,99910.13
2018-07-26T20:45:49.057Z,99913.19
2018-07-26T20:48:17.216Z,99910.88
2018-07-26T20:50:45.314Z,99911.44
2018-07-26T20:53:12.591Z,99915.60
2018-07-26T20:55:40.191Z,99910.30
2018-07-26T20:58:07.299Z,99912.14
2018-07-26T21:00:34.466Z,99917.57
2018-07-26T21:03:01.542Z,99921.98
2018-07-26T21:05:29.616Z,99919.92
2018-07-26T21:07:57.658Z,99926.05
2018-07-26T21:10:31.204Z,99927.97
2018-07-26T21:12:58.356Z,99926.61
2018-07-26T21:15:28.298Z,99934.39
2018-07-26T21:17:58.446Z,99925.07
2018-07-26T21:20:26.507Z,99929.97
2018-07-26T21:22:58.649Z,99933.29
2018-07-26T21:25:26.633Z,99934.38
2018-07-26T21:27:55.602Z,99932.73
2018-07-26T21:30:22.744Z,99943.17
2018-07-26T21:32:49.857Z,99938.23
2018-07-26T21:35:17.030Z,99939.98
2018-07-26T21:37:47.216Z,99937.77
2018-07-26T21:40:14.396Z,99940.59
2018-07-26T21:42:42.320Z,99936.19
2018-07-26T21:45:10.508Z,99939.98
2018-07-26T21:47:37.660Z,99935.44
2018-07-26T21:50:05.731Z,99933.91
2018-07-26T21:52:32.796Z,99937.78
2018-07-26T21:54:59.879Z,99939.94
2018-07-26T21:57:27.159Z,99936.19
2018-07-26T21:59:55.209Z,99941.95
2018-07-26T22:02:22.367Z,99937.49
2018-07-26T22:04:49.697Z,99940.41
2018-07-26T22:07:16.760Z,99940.52
2018-07-26T22:09:49.655Z,99937.80
2018-07-26T22:12:16.724Z,99939.50
2018-07-26T22:14:48.980Z,99945.45
2018-07-26T22:17:16.185Z,99941.46
2018-07-26T22:19:43.294Z,99937.31
2018-07-26T22:22:10.421Z,99937.48
2018-07-26T22:24:39.121Z,99934.21
2018-07-26T22:27:09.258Z,99929.48
2018-07-26T22:29:36.402Z,99932.30
2018-07-26T22:32:03.611Z,99942.42
2018-07-26T22:34:30.701Z,99941.29
2018-07-26T22:36:57.827Z,99934.38
2018-07-26T22:39:25.741Z,99932.66
2018-07-26T22:41:53.847Z,99930.41
2018-07-26T22:44:22.653Z,99937.27
2018-07-26T22:46:49.843Z,99935.27
2018-07-26T22:49:17.692Z,99941.20
2018-07-26T22:51:45.639Z,99935.34
2018-07-26T22:54:12.782Z,99932.06
2018-07-26T22:56:39.876Z,99937.18
2018-07-26T22:59:07.827Z,99938.75
2018-07-26T23:01:34.889Z,99937.54
2018-07-26T23:04:03.124Z,99939.64
2018-07-26T23:06:31.292Z,99944.45
2018-07-26T23:09:01.255Z,99939.36
2018-07-26T23:11:40.163Z,99941.47
2018-07-26T23:14:09.221Z,99938.02
2018-07-26T23:16:43.558Z,99941.44
2018-07-26T23:19:12.154Z,99940.83
2018-07-26T23:21:45.498Z,99942.11
2018-07-26T23:24:13.154Z,99944.14
2018-07-26T23:26:42.297Z,99933.44
2018-07-26T23:29:10.170Z,99936.33
2018-07-26T23:31:37.345Z,99940.46
2018-07-26T23:34:04.488Z,99938.36
2018-07-26T23:36:33.336Z,99935.73
2018-07-26T23:39:00.456Z,99940.69
2018-07-26T23:41:27.601Z,99933.49
2018-07-26T23:43:59.860Z,99945.13
2018-07-26T23:46:30.774Z,99945.91
2018-07-26T23:48:59.664Z,99946.50
2018-07-26T23:51:26.756Z,99941.88
2018-07-26T23:53:53.848Z,99940.09
2018-07-26T23:56:21.907Z,99948.81
2018-07-26T23:58:49.699Z,99942.84
